sensor_id;sensor_type;location;lat;lon;timestamp;pressure;altitude;pressure_sealevel;temperature;humidity
43824;BME280;29470;53.550;9.926;2022-11-20T00:03:39;100851.81;;;1.71;96.02
43824;BME280;29470;53.550;9.926;2022-11-20T00:08:42;100846.97;;;1.66;95.71
43824;BME280;29470;53.550;9.926;2022-11-20T00:13:45;100842.94;;;1.68;95.86
43824;BME280;29470;53.550;9.926;2022-11-20T00:18:51;100839.56;;;1.60;97.61
43824;BME280;29470;53.550;9.926;2022-11-20T00:23:55;100837.09;;;1.53;98.28
43824;BME280;29470;53.550;9.926;2022-11-20T00:28:59;100839.09;;;1.55;98.58
43824;BME280;29470;53.550;9.926;2022-11-20T00:34:04;100838.09;;;1.62;98.81
43824;BME280;29470;53.550;9.926;2022-11-20T00:39:07;100836.59;;;1.64;99.03
43824;BME280;29470;53.550;9.926;2022-11-20T00:44:09;100833.81;;;1.54;100.00
43824;BME280;29470;53.550;9.926;2022-11-20T00:49:13;100828.91;;;1.55;100.00
43824;BME280;29470;53.550;9.926;2022-11-20T00:54:16;100839.91;;;1.47;100.00
43824;BME280;29470;53.550;9.926;2022-11-20T00:59:22;100831.94;;;1.44;100.00
43824;BME280;29470;53.550;9.926;2022-11-20T01:04:26;100825.13;;;1.36;100.00
43824;BME280;29470;53.550;9.926;2022-11-20T01:09:29;100827.72;;;1.44;100.00
43824;BME280;29470;53.550;9.926;2022-11-20T01:14:32;100826.09;;;1.45;100.00
43824;BME280;29470;53.550;9.926;2022-11-20T01:19:36;100823.63;;;1.54;100.00
43824;BME280;29470;53.550;9.926;2022-11-20T01:24:38;100814.03;;;1.51;100.00
43824;BME280;29470;53.550;9.926;2022-11-20T01:29:41;100814.34;;;1.54;100.00
43824;BME280;29470;53.550;9.926;2022-11-20T01:34:46;100810.78;;;1.61;100.00
43824;BME280;29470;53.550;9.926;2022-11-20T01:39:48;100796.72;;;1.65;100.00
43824;BME280;29470;53.550;9.926;2022-11-20T01:44:54;100795.56;;;1.54;100.00
43824;BME280;29470;53.550;9.926;2022-11-20T01:50:03;100778.38;;;1.60;100.00
43824;BME280;29470;53.550;9.926;2022-11-20T01:55:09;100781.94;;;1.53;100.00
43824;BME280;29470;53.550;9.926;2022-11-20T02:00:17;100774.44;;;1.55;100.00
43824;BME280;29470;53.550;9.926;2022-11-20T02:05:26;100773.22;;;1.51;100.00
43824;BME280;29470;53.550;9.926;2022-11-20T02:10:31;100770.69;;;1.51;100.00
43824;BME280;29470;53.550;9.926;2022-11-20T02:15:34;100768.88;;;1.50;100.00
43824;BME280;29470;53.550;9.926;2022-11-20T02:20:40;100764.00;;;1.44;100.00
43824;BME280;29470;53.550;9.926;2022-11-20T02:25:46;100762.84;;;1.50;100.00
43824;BME280;29470;53.550;9.926;2022-11-20T02:30:49;100760.56;;;1.44;100.00
43824;BME280;29470;53.550;9.926;2022-11-20T02:35:52;100761.56;;;1.53;100.00
43824;BME280;29470;53.550;9.926;2022-11-20T02:40:56;100761.88;;;1.56;100.00
43824;BME280;29470;53.550;9.926;2022-11-20T02:45:59;100755.16;;;1.41;100.00
43824;BME280;29470;53.550;9.926;2022-11-20T02:51:02;100755.47;;;1.44;100.00
43824;BME280;29470;53.550;9.926;2022-11-20T02:56:07;100750.72;;;1.47;100.00
43824;BME280;29470;53.550;9.926;2022-11-20T03:01:09;100740.03;;;1.67;100.00
43824;BME280;29470;53.550;9.926;2022-11-20T03:06:12;100739.69;;;1.55;100.00
43824;BME280;29470;53.550;9.926;2022-11-20T03:11:16;100743.53;;;1.52;100.00
43824;BME280;29470;53.550;9.926;2022-11-20T03:16:20;100747.38;;;1.64;100.00
43824;BME280;29470;53.550;9.926;2022-11-20T03:21:23;100740.88;;;1.59;100.00
43824;BME280;29470;53.550;9.926;2022-11-20T03:26:28;100737.75;;;1.61;100.00
43824;BME280;29470;53.550;9.926;2022-11-20T03:31:32;100750.66;;;1.63;100.00
43824;BME280;29470;53.550;9.926;2022-11-20T03:36:37;100734.81;;;1.50;100.00
43824;BME280;29470;53.550;9.926;2022-11-20T03:41:41;100734.78;;;1.41;100.00
43824;BME280;29470;53.550;9.926;2022-11-20T03:46:44;100729.41;;;1.46;100.00
43824;BME280;29470;53.550;9.926;2022-11-20T03:51:47;100716.50;;;1.45;100.00
43824;BME280;29470;53.550;9.926;2022-11-20T03:56:51;100726.28;;;1.33;100.00
43824;BME280;29470;53.550;9.926;2022-11-20T04:01:54;100713.09;;;1.28;100.00
43824;BME280;29470;53.550;9.926;2022-11-20T04:06:57;100721.16;;;1.24;100.00
43824;BME280;29470;53.550;9.926;2022-11-20T04:12:01;100723.84;;;1.26;100.00
43824;BME280;29470;53.550;9.926;2022-11-20T04:17:04;100718.50;;;1.31;100.00
43824;BME280;29470;53.550;9.926;2022-11-20T04:22:07;100711.03;;;1.17;100.00
43824;BME280;29470;53.550;9.926;2022-11-20T04:27:12;100707.75;;;1.18;100.00
43824;BME280;29470;53.550;9.926;2022-11-20T04:32:15;100707.44;;;1.15;100.00
43824;BME280;29470;53.550;9.926;2022-11-20T04:37:17;100698.63;;;1.20;100.00
43824;BME280;29470;53.550;9.926;2022-11-20T04:42:22;100697.28;;;1.24;100.00
43824;BME280;29470;53.550;9.926;2022-11-20T04:47:30;100694.50;;;1.29;100.00
43824;BME280;29470;53.550;9.926;2022-11-20T04:52:33;100695.16;;;1.20;100.00
43824;BME280;29470;53.550;9.926;2022-11-20T04:57:37;100698.88;;;1.14;100.00
43824;BME280;29470;53.550;9.926;2022-11-20T05:02:40;100695.75;;;1.17;100.00
43824;BME280;29470;53.550;9.926;2022-11-20T05:07:43;100692.28;;;1.16;100.00
43824;BME280;29470;53.550;9.926;2022-11-20T05:12:47;100685.34;;;1.07;100.00
43824;BME280;29470;53.550;9.926;2022-11-20T05:17:50;100675.78;;;1.13;100.00
43824;BME280;29470;53.550;9.926;2022-11-20T05:22:56;100681.13;;;1.07;100.00
43824;BME280;29470;53.550;9.926;2022-11-20T05:28:00;100680.16;;;1.14;100.00
43824;BME280;29470;53.550;9.926;2022-11-20T05:33:03;100673.38;;;1.14;100.00
43824;BME280;29470;53.550;9.926;2022-11-20T05:38:06;100671.66;;;1.22;100.00
43824;BME280;29470;53.550;9.926;2022-11-20T05:43:10;100663.09;;;1.22;100.00
43824;BME280;29470;53.550;9.926;2022-11-20T05:48:13;100662.53;;;1.24;100.00
43824;BME280;29470;53.550;9.926;2022-11-20T05:53:16;100650.03;;;1.18;100.00
43824;BME280;29470;53.550;9.926;2022-11-20T05:58:20;100651.47;;;1.08;100.00
43824;BME280;29470;53.550;9.926;2022-11-20T06:03:22;100646.94;;;1.21;100.00
43824;BME280;29470;53.550;9.926;2022-11-20T06:08:25;100646.44;;;1.16;100.00
43824;BME280;29470;53.550;9.926;2022-11-20T06:13:29;100641.44;;;1.34;100.00
43824;BME280;29470;53.550;9.926;2022-11-20T06:18:32;100641.44;;;1.34;100.00
43824;BME280;29470;53.550;9.926;2022-11-20T06:23:36;100636.00;;;1.47;100.00
43824;BME280;29470;53.550;9.926;2022-11-20T06:28:40;100642.47;;;1.27;100.00
43824;BME280;29470;53.550;9.926;2022-11-20T06:33:43;100640.34;;;1.23;100.00
43824;BME280;29470;53.550;9.926;2022-11-20T06:38:46;100644.44;;;1.30;100.00
43824;BME280;29470;53.550;9.926;2022-11-20T06:43:50;100644.31;;;1.12;100.00
43824;BME280;29470;53.550;9.926;2022-11-20T06:48:53;100649.03;;;1.00;100.00
43824;BME280;29470;53.550;9.926;2022-11-20T06:53:56;100653.88;;;0.90;100.00
43824;BME280;29470;53.550;9.926;2022-11-20T06:59:03;100648.97;;;0.76;100.00
43824;BME280;29470;53.550;9.926;2022-11-20T07:04:06;100648.22;;;0.77;100.00
43824;BME280;29470;53.550;9.926;2022-11-20T07:09:09;100643.53;;;0.72;100.00
43824;BME280;29470;53.550;9.926;2022-11-20T07:14:14;100641.91;;;0.73;100.00
43824;BME280;29470;53.550;9.926;2022-11-20T07:19:17;100649.47;;;0.80;100.00
43824;BME280;29470;53.550;9.926;2022-11-20T07:24:20;100640.25;;;0.73;100.00
43824;BME280;29470;53.550;9.926;2022-11-20T07:29:25;100638.44;;;0.72;100.00
43824;BME280;29470;53.550;9.926;2022-11-20T07:34:29;100645.28;;;0.65;100.00
43824;BME280;29470;53.550;9.926;2022-11-20T07:39:31;100638.38;;;0.80;100.00
43824;BME280;29470;53.550;9.926;2022-11-20T07:44:35;100650.69;;;0.84;100.00
43824;BME280;29470;53.550;9.926;2022-11-20T07:49:38;100644.91;;;1.10;100.00
43824;BME280;29470;53.550;9.926;2022-11-20T07:54:41;100632.50;;;1.38;100.00
43824;BME280;29470;53.550;9.926;2022-11-20T07:59:45;100630.16;;;1.48;100.00
43824;BME280;29470;53.550;9.926;2022-11-20T08:04:48;100630.16;;;1.73;100.00
43824;BME280;29470;53.550;9.926;2022-11-20T08:09:51;100630.47;;;1.51;100.00
43824;BME280;29470;53.550;9.926;2022-11-20T08:14:55;100633.28;;;1.79;100.00
43824;BME280;29470;53.550;9.926;2022-11-20T08:20:00;100637.38;;;1.86;100.00
43824;BME280;29470;53.550;9.926;2022-11-20T08:25:03;100631.78;;;1.81;100.00
43824;BME280;29470;53.550;9.926;2022-11-20T08:30:09;100637.47;;;2.12;100.00
43824;BME280;29470;53.550;9.926;2022-11-20T08:35:12;100634.59;;;2.09;99.72
43824;BME280;29470;53.550;9.926;2022-11-20T08:40:15;100640.59;;;2.01;100.00
43824;BME280;29470;53.550;9.926;2022-11-20T08:45:21;100642.63;;;2.21;99.05
43824;BME280;29470;53.550;9.926;2022-11-20T08:50:24;100640.81;;;2.20;98.89
43824;BME280;29470;53.550;9.926;2022-11-20T08:55:27;100639.97;;;1.95;99.69
43824;BME280;29470;53.550;9.926;2022-11-20T09:00:31;100642.13;;;2.16;98.46
43824;BME280;29470;53.550;9.926;2022-11-20T09:05:34;100641.69;;;2.20;100.00
43824;BME280;29470;53.550;9.926;2022-11-20T09:10:37;100647.81;;;2.05;97.71
43824;BME280;29470;53.550;9.926;2022-11-20T09:15:42;100645.72;;;2.10;99.63
43824;BME280;29470;53.550;9.926;2022-11-20T09:20:45;100636.38;;;2.44;97.81
43824;BME280;29470;53.550;9.926;2022-11-20T09:25:48;100634.00;;;2.98;94.21
43824;BME280;29470;53.550;9.926;2022-11-20T09:30:52;100636.25;;;3.13;92.07
43824;BME280;29470;53.550;9.926;2022-11-20T09:35:55;100646.16;;;2.74;94.92
43824;BME280;29470;53.550;9.926;2022-11-20T09:41:02;100635.47;;;2.61;95.79
43824;BME280;29470;53.550;9.926;2022-11-20T09:46:11;100647.28;;;2.34;100.00
43824;BME280;29470;53.550;9.926;2022-11-20T09:51:26;100646.97;;;2.31;100.00
43824;BME280;29470;53.550;9.926;2022-11-20T09:56:33;100639.97;;;2.55;97.53
43824;BME280;29470;53.550;9.926;2022-11-20T10:01:38;100637.44;;;2.90;94.77
43824;BME280;29470;53.550;9.926;2022-11-20T10:06:44;100634.97;;;3.53;90.25
43824;BME280;29470;53.550;9.926;2022-11-20T10:12:14;100628.38;;;3.37;89.76
43824;BME280;29470;53.550;9.926;2022-11-20T10:17:30;100616.19;;;3.35;90.60
43824;BME280;29470;53.550;9.926;2022-11-20T10:22:49;100620.03;;;4.03;86.93
43824;BME280;29470;53.550;9.926;2022-11-20T10:28:24;100616.22;;;3.72;86.94
43824;BME280;29470;53.550;9.926;2022-11-20T10:33:36;100614.09;;;3.31;88.89
43824;BME280;29470;53.550;9.926;2022-11-20T10:39:05;100610.78;;;3.41;89.06
43824;BME280;29470;53.550;9.926;2022-11-20T10:44:13;100606.56;;;3.78;87.49
43824;BME280;29470;53.550;9.926;2022-11-20T10:49:38;100607.72;;;3.53;87.33
43824;BME280;29470;53.550;9.926;2022-11-20T10:54:48;100596.53;;;3.71;86.60
43824;BME280;29470;53.550;9.926;2022-11-20T11:00:10;100594.59;;;3.68;84.38
43824;BME280;29470;53.550;9.926;2022-11-20T11:05:24;100600.03;;;3.99;84.23
43824;BME280;29470;53.550;9.926;2022-11-20T11:10:34;100594.44;;;3.66;83.75
43824;BME280;29470;53.550;9.926;2022-11-20T11:15:40;100598.88;;;3.87;83.25
43824;BME280;29470;53.550;9.926;2022-11-20T11:20:51;100586.91;;;3.68;82.41
43824;BME280;29470;53.550;9.926;2022-11-20T11:25:59;100582.88;;;3.61;84.00
43824;BME280;29470;53.550;9.926;2022-11-20T11:31:02;100585.63;;;3.45;84.60
43824;BME280;29470;53.550;9.926;2022-11-20T11:36:18;100588.09;;;3.72;83.78
43824;BME280;29470;53.550;9.926;2022-11-20T11:41:27;100581.81;;;3.68;83.09
43824;BME280;29470;53.550;9.926;2022-11-20T11:46:34;100592.59;;;3.37;84.58
43824;BME280;29470;53.550;9.926;2022-11-20T11:51:50;100586.16;;;3.32;84.56
43824;BME280;29470;53.550;9.926;2022-11-20T11:56:59;100590.34;;;3.41;85.46
43824;BME280;29470;53.550;9.926;2022-11-20T12:02:15;100574.47;;;2.99;86.85
43824;BME280;29470;53.550;9.926;2022-11-20T12:07:23;100584.94;;;3.37;85.45
43824;BME280;29470;53.550;9.926;2022-11-20T12:12:51;100580.28;;;3.33;84.16
43824;BME280;29470;53.550;9.926;2022-11-20T12:17:56;100575.53;;;3.56;82.00
43824;BME280;29470;53.550;9.926;2022-11-20T12:23:05;100567.09;;;3.57;81.18
43824;BME280;29470;53.550;9.926;2022-11-20T12:33:58;100545.09;;;3.95;79.92
43824;BME280;29470;53.550;9.926;2022-11-20T12:39:22;100546.38;;;3.81;80.69
43824;BME280;29470;53.550;9.926;2022-11-20T12:44:51;100543.19;;;3.84;81.30
43824;BME280;29470;53.550;9.926;2022-11-20T12:50:19;100548.94;;;3.81;81.07
43824;BME280;29470;53.550;9.926;2022-11-20T12:55:33;100555.72;;;3.44;81.01
43824;BME280;29470;53.550;9.926;2022-11-20T13:00:46;100549.63;;;3.61;81.03
43824;BME280;29470;53.550;9.926;2022-11-20T13:05:55;100550.88;;;3.84;80.82
43824;BME280;29470;53.550;9.926;2022-11-20T13:11:09;100547.63;;;3.67;81.42
43824;BME280;29470;53.550;9.926;2022-11-20T13:16:19;100538.63;;;3.62;80.90
43824;BME280;29470;53.550;9.926;2022-11-20T13:21:35;100536.53;;;3.58;79.28
43824;BME280;29470;53.550;9.926;2022-11-20T13:26:40;100528.22;;;3.97;77.77
43824;BME280;29470;53.550;9.926;2022-11-20T13:31:45;100526.13;;;3.93;78.53
43824;BME280;29470;53.550;9.926;2022-11-20T13:36:49;100535.28;;;3.72;78.73
43824;BME280;29470;53.550;9.926;2022-11-20T13:41:58;100526.41;;;3.41;80.66
43824;BME280;29470;53.550;9.926;2022-11-20T13:47:02;100523.59;;;3.29;81.56
43824;BME280;29470;53.550;9.926;2022-11-20T13:52:33;100522.47;;;3.53;81.02
43824;BME280;29470;53.550;9.926;2022-11-20T13:57:53;100506.78;;;3.22;82.83
43824;BME280;29470;53.550;9.926;2022-11-20T14:03:09;100511.13;;;3.23;80.44
43824;BME280;29470;53.550;9.926;2022-11-20T14:08:24;100512.91;;;3.33;80.13
43824;BME280;29470;53.550;9.926;2022-11-20T14:13:30;100506.66;;;3.03;81.35
43824;BME280;29470;53.550;9.926;2022-11-20T14:18:32;100506.59;;;3.29;81.44
43824;BME280;29470;53.550;9.926;2022-11-20T14:23:35;100497.94;;;3.46;80.30
43824;BME280;29470;53.550;9.926;2022-11-20T14:28:41;100493.06;;;3.58;80.23
43824;BME280;29470;53.550;9.926;2022-11-20T14:33:44;100485.00;;;3.73;80.44
43824;BME280;29470;53.550;9.926;2022-11-20T14:38:52;100483.31;;;3.17;81.20
43824;BME280;29470;53.550;9.926;2022-11-20T14:43:58;100483.25;;;3.35;81.23
43824;BME280;29470;53.550;9.926;2022-11-20T14:49:02;100486.44;;;2.87;82.39
43824;BME280;29470;53.550;9.926;2022-11-20T14:54:10;100488.66;;;3.01;83.26
43824;BME280;29470;53.550;9.926;2022-11-20T14:59:22;100479.19;;;3.00;82.91
43824;BME280;29470;53.550;9.926;2022-11-20T15:04:26;100478.09;;;3.16;83.31
43824;BME280;29470;53.550;9.926;2022-11-20T15:09:29;100481.09;;;3.12;84.03
43824;BME280;29470;53.550;9.926;2022-11-20T15:14:35;100469.47;;;3.24;83.68
43824;BME280;29470;53.550;9.926;2022-11-20T15:19:46;100469.19;;;2.67;86.18
43824;BME280;29470;53.550;9.926;2022-11-20T15:24:52;100471.34;;;2.53;87.34
43824;BME280;29470;53.550;9.926;2022-11-20T15:29:56;100466.16;;;2.71;88.40
43824;BME280;29470;53.550;9.926;2022-11-20T15:34:59;100454.47;;;2.64;89.16
43824;BME280;29470;53.550;9.926;2022-11-20T15:40:03;100450.00;;;2.53;90.28
43824;BME280;29470;53.550;9.926;2022-11-20T15:45:08;100454.66;;;2.48;90.09
43824;BME280;29470;53.550;9.926;2022-11-20T15:50:17;100445.78;;;2.44;89.86
43824;BME280;29470;53.550;9.926;2022-11-20T15:55:19;100449.41;;;2.38;91.01
43824;BME280;29470;53.550;9.926;2022-11-20T16:00:24;100445.78;;;2.44;91.86
43824;BME280;29470;53.550;9.926;2022-11-20T16:05:28;100434.97;;;2.56;90.38
43824;BME280;29470;53.550;9.926;2022-11-20T16:10:31;100424.75;;;2.56;90.73
43824;BME280;29470;53.550;9.926;2022-11-20T16:15:35;100435.44;;;2.43;90.40
43824;BME280;29470;53.550;9.926;2022-11-20T16:20:48;100425.97;;;2.33;91.53
43824;BME280;29470;53.550;9.926;2022-11-20T16:25:51;100418.78;;;2.38;91.36
43824;BME280;29470;53.550;9.926;2022-11-20T16:30:56;100411.56;;;2.42;90.69
43824;BME280;29470;53.550;9.926;2022-11-20T16:36:06;100404.81;;;2.34;87.75
43824;BME280;29470;53.550;9.926;2022-11-20T16:41:09;100401.44;;;2.70;86.63
43824;BME280;29470;53.550;9.926;2022-11-20T16:46:17;100403.06;;;2.78;84.80
43824;BME280;29470;53.550;9.926;2022-11-20T16:51:20;100408.56;;;2.55;84.88
43824;BME280;29470;53.550;9.926;2022-11-20T16:56:25;100409.16;;;2.35;87.19
43824;BME280;29470;53.550;9.926;2022-11-20T17:01:30;100400.63;;;2.26;90.80
43824;BME280;29470;53.550;9.926;2022-11-20T17:06:36;100397.47;;;2.28;91.40
43824;BME280;29470;53.550;9.926;2022-11-20T17:11:39;100399.75;;;2.25;91.55
43824;BME280;29470;53.550;9.926;2022-11-20T17:16:43;100389.69;;;2.18;91.76
43824;BME280;29470;53.550;9.926;2022-11-20T17:21:47;100391.66;;;2.12;92.30
43824;BME280;29470;53.550;9.926;2022-11-20T17:26:50;100379.78;;;2.12;90.61
43824;BME280;29470;53.550;9.926;2022-11-20T17:31:54;100380.09;;;2.06;90.56
43824;BME280;29470;53.550;9.926;2022-11-20T17:36:57;100378.75;;;2.01;92.15
43824;BME280;29470;53.550;9.926;2022-11-20T17:42:00;100376.47;;;1.96;94.06
43824;BME280;29470;53.550;9.926;2022-11-20T17:47:21;100377.53;;;1.80;94.79
43824;BME280;29470;53.550;9.926;2022-11-20T17:52:24;100394.19;;;1.68;96.80
43824;BME280;29470;53.550;9.926;2022-11-20T17:57:27;100387.16;;;1.74;97.35
43824;BME280;29470;53.550;9.926;2022-11-20T18:02:49;100390.91;;;1.69;99.08
43824;BME280;29470;53.550;9.926;2022-11-20T18:07:52;100387.31;;;1.67;99.97
43824;BME280;29470;53.550;9.926;2022-11-20T18:12:55;100388.19;;;1.67;100.00
43824;BME280;29470;53.550;9.926;2022-11-20T18:17:59;100391.53;;;1.24;100.00
43824;BME280;29470;53.550;9.926;2022-11-20T18:23:02;100398.88;;;1.21;100.00
43824;BME280;29470;53.550;9.926;2022-11-20T18:28:05;100400.09;;;1.24;100.00
43824;BME280;29470;53.550;9.926;2022-11-20T18:33:12;100397.56;;;1.33;100.00
43824;BME280;29470;53.550;9.926;2022-11-20T18:38:15;100393.47;;;1.17;100.00
43824;BME280;29470;53.550;9.926;2022-11-20T18:43:18;100383.31;;;1.26;100.00
43824;BME280;29470;53.550;9.926;2022-11-20T18:48:39;100384.16;;;1.09;100.00
43824;BME280;29470;53.550;9.926;2022-11-20T18:53:43;100375.34;;;1.14;100.00
43824;BME280;29470;53.550;9.926;2022-11-20T18:58:48;100371.34;;;0.83;100.00
43824;BME280;29470;53.550;9.926;2022-11-20T19:04:21;100371.84;;;0.96;100.00
43824;BME280;29470;53.550;9.926;2022-11-20T19:09:26;100369.44;;;0.98;100.00
43824;BME280;29470;53.550;9.926;2022-11-20T19:14:29;100353.59;;;1.09;100.00
43824;BME280;29470;53.550;9.926;2022-11-20T19:19:35;100351.72;;;0.91;100.00
43824;BME280;29470;53.550;9.926;2022-11-20T19:24:38;100345.94;;;1.00;100.00
43824;BME280;29470;53.550;9.926;2022-11-20T19:29:43;100338.78;;;0.71;100.00
43824;BME280;29470;53.550;9.926;2022-11-20T19:34:48;100339.91;;;0.91;100.00
43824;BME280;29470;53.550;9.926;2022-11-20T19:39:51;100334.00;;;0.75;100.00
43824;BME280;29470;53.550;9.926;2022-11-20T19:44:54;100319.25;;;0.88;100.00
43824;BME280;29470;53.550;9.926;2022-11-20T19:50:00;100310.66;;;0.79;100.00
43824;BME280;29470;53.550;9.926;2022-11-20T19:55:03;100314.75;;;0.85;100.00
43824;BME280;29470;53.550;9.926;2022-11-20T20:00:08;100296.75;;;0.75;100.00
43824;BME280;29470;53.550;9.926;2022-11-20T20:05:18;100296.63;;;0.82;100.00
43824;BME280;29470;53.550;9.926;2022-11-20T20:10:21;100298.13;;;0.89;100.00
43824;BME280;29470;53.550;9.926;2022-11-20T20:15:24;100287.81;;;1.05;100.00
43824;BME280;29470;53.550;9.926;2022-11-20T20:20:29;100279.13;;;1.03;100.00
43824;BME280;29470;53.550;9.926;2022-11-20T20:25:32;100278.75;;;0.73;100.00
43824;BME280;29470;53.550;9.926;2022-11-20T20:30:35;100278.19;;;0.76;100.00
43824;BME280;29470;53.550;9.926;2022-11-20T20:35:40;100278.94;;;0.84;100.00
43824;BME280;29470;53.550;9.926;2022-11-20T20:40:47;100278.50;;;0.88;100.00
43824;BME280;29470;53.550;9.926;2022-11-20T20:45:51;100273.53;;;0.81;100.00
43824;BME280;29470;53.550;9.926;2022-11-20T20:50:58;100264.72;;;0.77;100.00
43824;BME280;29470;53.550;9.926;2022-11-20T20:56:03;100262.09;;;0.60;100.00
43824;BME280;29470;53.550;9.926;2022-11-20T21:01:07;100270.00;;;0.54;100.00
43824;BME280;29470;53.550;9.926;2022-11-20T21:06:12;100262.84;;;0.58;100.00
43824;BME280;29470;53.550;9.926;2022-11-20T21:11:18;100264.22;;;0.64;100.00
43824;BME280;29470;53.550;9.926;2022-11-20T21:16:22;100259.09;;;0.55;100.00
43824;BME280;29470;53.550;9.926;2022-11-20T21:21:28;100260.63;;;0.62;100.00
43824;BME280;29470;53.550;9.926;2022-11-20T21:26:48;100258.66;;;0.59;100.00
43824;BME280;29470;53.550;9.926;2022-11-20T21:31:53;100255.78;;;0.47;100.00
43824;BME280;29470;53.550;9.926;2022-11-20T21:36:59;100257.06;;;0.35;100.00
43824;BME280;29470;53.550;9.926;2022-11-20T21:42:03;100253.28;;;0.22;100.00
43824;BME280;29470;53.550;9.926;2022-11-20T21:47:05;100244.91;;;0.23;100.00
43824;BME280;29470;53.550;9.926;2022-11-20T21:52:11;100234.09;;;0.17;100.00
43824;BME280;29470;53.550;9.926;2022-11-20T21:57:16;100229.13;;;0.10;100.00
43824;BME280;29470;53.550;9.926;2022-11-20T22:02:21;100227.41;;;-0.07;100.00
43824;BME280;29470;53.550;9.926;2022-11-20T22:07:26;100213.31;;;-0.12;100.00
43824;BME280;29470;53.550;9.926;2022-11-20T22:12:28;100222.53;;;-0.22;100.00
43824;BME280;29470;53.550;9.926;2022-11-20T22:17:33;100211.34;;;-0.40;100.00
43824;BME280;29470;53.550;9.926;2022-11-20T22:22:55;100209.72;;;-0.39;100.00
43824;BME280;29470;53.550;9.926;2022-11-20T22:27:58;100202.53;;;-0.43;100.00
43824;BME280;29470;53.550;9.926;2022-11-20T22:33:01;100201.28;;;-0.47;100.00
43824;BME280;29470;53.550;9.926;2022-11-20T22:38:12;100201.66;;;-0.60;100.00
43824;BME280;29470;53.550;9.926;2022-11-20T22:43:15;100211.41;;;-0.72;100.00
43824;BME280;29470;53.550;9.926;2022-11-20T22:48:17;100211.09;;;-0.75;100.00
43824;BME280;29470;53.550;9.926;2022-11-20T22:53:21;100204.50;;;-0.82;100.00
43824;BME280;29470;53.550;9.926;2022-11-20T22:58:27;100205.78;;;-0.85;100.00
43824;BME280;29470;53.550;9.926;2022-11-20T23:03:29;100206.53;;;-0.86;100.00
43824;BME280;29470;53.550;9.926;2022-11-20T23:08:34;100209.25;;;-0.85;100.00
43824;BME280;29470;53.550;9.926;2022-11-20T23:13:37;100202.97;;;-0.88;100.00
43824;BME280;29470;53.550;9.926;2022-11-20T23:18:41;100201.44;;;-0.70;100.00
43824;BME280;29470;53.550;9.926;2022-11-20T23:23:48;100197.06;;;-0.31;100.00
43824;BME280;29470;53.550;9.926;2022-11-20T23:28:52;100191.94;;;-0.14;100.00
43824;BME280;29470;53.550;9.926;2022-11-20T23:33:56;100175.09;;;-0.30;100.00
43824;BME280;29470;53.550;9.926;2022-11-20T23:39:00;100178.28;;;-0.49;100.00
43824;BME280;29470;53.550;9.926;2022-11-20T23:44:03;100173.19;;;-0.73;100.00
43824;BME280;29470;53.550;9.926;2022-11-20T23:49:06;100173.28;;;-0.81;100.00
43824;BME280;29470;53.550;9.926;2022-11-20T23:54:10;100167.94;;;-0.75;100.00
43824;BME280;29470;53.550;9.926;2022-11-20T23:59:12;100163.16;;;-0.72;100.00
